createdAt,value
2023-04-07T00:00:37.989Z,147126.66
2023-04-07T00:01:40.643Z,147119.41
2023-04-07T00:02:44.679Z,147129.06
2023-04-07T00:03:47.581Z,147129.06
2023-04-07T00:04:50.131Z,147136.31
2023-04-07T00:05:52.510Z,147143.59
2023-04-07T00:06:55.031Z,147150.81
2023-04-07T00:07:57.612Z,147156.88
2023-04-07T00:09:00.081Z,147156.88
2023-04-07T00:10:02.632Z,147160.47
2023-04-07T00:11:05.473Z,147167.72
2023-04-07T00:12:07.992Z,147170.13
2023-04-07T00:13:10.642Z,147158.06
2023-04-07T00:14:13.158Z,147155.66
2023-04-07T00:15:15.918Z,147162.91
2023-04-07T00:16:18.559Z,147150.81
2023-04-07T00:17:21.080Z,147155.66
2023-04-07T00:18:23.597Z,147155.66
2023-04-07T00:19:26.128Z,147144.78
2023-04-07T00:20:28.651Z,147148.41
2023-04-07T00:21:31.404Z,147146.00
2023-04-07T00:22:33.920Z,147138.72
2023-04-07T00:23:36.333Z,147123.03
2023-04-07T00:24:38.852Z,147117.00
2023-04-07T00:25:41.369Z,147102.41
2023-04-07T00:26:44.012Z,147092.75
2023-04-07T00:27:46.527Z,147081.91
2023-04-07T00:28:49.285Z,147073.41
2023-04-07T00:29:51.929Z,147072.19
2023-04-07T00:30:54.480Z,147068.59
2023-04-07T00:31:56.965Z,147054.09
2023-04-07T00:32:59.525Z,147054.09
2023-04-07T00:34:02.487Z,147045.66
2023-04-07T00:35:05.378Z,147046.88
2023-04-07T00:36:08.011Z,147040.78
2023-04-07T00:37:10.537Z,147029.94
2023-04-07T00:38:13.290Z,147029.94
2023-04-07T00:39:16.050Z,147019.06
2023-04-07T00:40:18.588Z,147015.44
2023-04-07T00:41:21.213Z,147006.97
2023-04-07T00:42:23.739Z,147000.94
2023-04-07T00:43:26.734Z,146993.69
2023-04-07T00:44:29.372Z,146986.44
2023-04-07T00:45:32.020Z,146977.97
2023-04-07T00:46:34.744Z,146971.94
2023-04-07T00:47:37.448Z,146974.34
2023-04-07T00:48:40.069Z,146967.09
2023-04-07T00:49:42.942Z,146955.03
2023-04-07T00:50:46.076Z,146970.72
2023-04-07T00:51:48.582Z,146953.84
2023-04-07T00:52:51.342Z,146969.50
2023-04-07T00:53:54.913Z,146979.16
2023-04-07T00:54:57.947Z,146967.09
2023-04-07T00:56:00.471Z,146951.44
2023-04-07T00:57:02.982Z,146950.22
2023-04-07T00:58:06.110Z,146947.75
2023-04-07T00:59:08.680Z,146942.94
2023-04-07T01:00:11.386Z,146941.72
2023-04-07T01:01:22.330Z,146975.56
2023-04-07T01:02:39.101Z,146979.16
2023-04-07T01:04:10.280Z,146974.34
2023-04-07T01:05:17.267Z,146929.66
2023-04-07T01:06:24.957Z,146946.56
2023-04-07T01:07:36.228Z,146959.88
2023-04-07T01:09:10.668Z,146964.69
2023-04-07T01:10:24.116Z,146962.28
2023-04-07T01:11:58.314Z,146967.09
2023-04-07T01:13:09.590Z,146957.44
2023-04-07T01:14:13.792Z,146950.22
2023-04-07T01:15:22.798Z,146950.22
2023-04-07T01:16:42.787Z,146959.88
2023-04-07T01:18:01.033Z,146956.25
2023-04-07T01:19:15.608Z,146953.84
2023-04-07T01:20:25.687Z,146939.31
2023-04-07T01:21:35.397Z,146944.16
2023-04-07T01:22:40.798Z,146947.75
2023-04-07T01:24:04.794Z,146984.03
2023-04-07T01:25:26.774Z,146962.28
2023-04-07T01:26:33.956Z,146998.50
2023-04-07T01:28:08.523Z,147010.56
2023-04-07T01:29:19.677Z,146973.13
2023-04-07T01:30:24.484Z,146980.41
2023-04-07T01:31:27.666Z,146964.69
2023-04-07T01:32:31.705Z,146994.91
2023-04-07T01:33:36.654Z,147000.94
2023-04-07T01:34:42.123Z,147000.94
2023-04-07T01:35:49.684Z,146998.50
2023-04-07T01:36:54.643Z,146994.91
2023-04-07T01:37:57.976Z,146990.06
2023-04-07T01:39:01.336Z,146986.44
2023-04-07T01:40:05.780Z,146993.69
2023-04-07T01:41:10.207Z,147010.56
2023-04-07T01:42:12.975Z,146996.09
2023-04-07T01:43:17.170Z,147005.75
2023-04-07T01:44:20.533Z,146999.72
2023-04-07T01:45:24.371Z,146979.16
2023-04-07T01:46:27.395Z,146969.50
2023-04-07T01:47:33.038Z,146984.03
2023-04-07T01:48:36.978Z,146998.50
2023-04-07T01:49:41.057Z,147000.94
2023-04-07T01:50:45.976Z,147005.75
2023-04-07T01:51:50.740Z,146982.84
2023-04-07T01:52:53.780Z,146996.09
2023-04-07T01:53:56.618Z,146979.16
2023-04-07T01:54:59.304Z,146981.63
2023-04-07T01:56:02.198Z,146988.88
2023-04-07T01:57:06.023Z,147015.44
2023-04-07T01:58:08.544Z,146988.88
2023-04-07T01:59:13.941Z,146974.34
2023-04-07T02:00:17.683Z,146986.44
2023-04-07T02:01:27.621Z,146976.75
2023-04-07T02:02:31.728Z,146950.22
2023-04-07T02:03:37.151Z,146993.69
2023-04-07T02:04:53.186Z,146998.50
2023-04-07T02:06:01.472Z,146984.03
2023-04-07T02:07:11.438Z,146992.47
2023-04-07T02:08:20.189Z,146968.31
2023-04-07T02:09:26.926Z,146988.88
2023-04-07T02:10:32.792Z,146930.88
2023-04-07T02:11:38.710Z,146956.25
2023-04-07T02:12:41.676Z,146946.56
2023-04-07T02:13:57.276Z,146961.06
2023-04-07T02:15:01.517Z,146945.34
2023-04-07T02:16:07.268Z,146947.75
2023-04-07T02:17:10.838Z,146899.47
2023-04-07T02:18:15.758Z,146934.50
2023-04-07T02:19:18.772Z,146900.69
2023-04-07T02:20:22.958Z,146905.50
2023-04-07T02:21:27.282Z,146868.06
2023-04-07T02:22:30.886Z,146869.28
2023-04-07T02:23:35.946Z,146891.03
2023-04-07T02:24:42.881Z,146893.44
2023-04-07T02:25:45.521Z,146880.13
2023-04-07T02:26:48.183Z,146869.28
2023-04-07T02:27:50.941Z,146860.84
2023-04-07T02:28:54.407Z,146865.66
2023-04-07T02:29:56.812Z,146840.28
2023-04-07T02:30:59.445Z,146835.47
2023-04-07T02:32:02.103Z,146817.34
2023-04-07T02:33:05.496Z,146823.41
2023-04-07T02:34:07.967Z,146827.03
2023-04-07T02:35:11.806Z,146816.13
2023-04-07T02:36:14.329Z,146823.41
2023-04-07T02:37:16.742Z,146805.28
2023-04-07T02:38:19.253Z,146810.09
2023-04-07T02:39:21.659Z,146819.78
2023-04-07T02:40:24.176Z,146822.19
2023-04-07T02:41:29.210Z,146817.34
2023-04-07T02:42:31.857Z,146788.41
2023-04-07T02:43:34.252Z,146790.81
2023-04-07T02:44:36.775Z,146776.28
2023-04-07T02:45:39.201Z,146749.72
2023-04-07T02:46:42.066Z,146719.53
2023-04-07T02:47:44.637Z,146732.84
2023-04-07T02:48:46.974Z,146736.47
2023-04-07T02:49:49.495Z,146743.69
2023-04-07T02:50:52.138Z,146752.13
2023-04-07T02:51:54.657Z,146749.72
2023-04-07T02:52:57.064Z,146740.09
2023-04-07T02:53:59.580Z,146735.25
2023-04-07T02:55:02.224Z,146715.94
2023-04-07T02:56:05.936Z,146735.25
2023-04-07T02:57:08.459Z,146720.81
2023-04-07T02:58:11.222Z,146706.28
2023-04-07T02:59:17.702Z,146711.13
2023-04-07T03:00:20.478Z,146718.34
2023-04-07T03:01:35.126Z,146703.88
2023-04-07T03:02:38.073Z,146703.88
2023-04-07T03:03:42.472Z,146709.91
2023-04-07T03:04:53.342Z,146694.25
2023-04-07T03:05:59.344Z,146673.69
2023-04-07T03:07:02.343Z,146671.28
2023-04-07T03:08:06.906Z,146694.25
2023-04-07T03:09:09.432Z,146713.53
2023-04-07T03:10:11.947Z,146706.28
2023-04-07T03:11:14.468Z,146689.41
2023-04-07T03:12:17.134Z,146653.16
2023-04-07T03:13:21.544Z,146689.41
2023-04-07T03:14:24.071Z,146680.94
2023-04-07T03:15:26.711Z,146656.84
2023-04-07T03:16:29.138Z,146674.91
2023-04-07T03:17:37.770Z,146641.13
2023-04-07T03:18:40.519Z,146635.09
2023-04-07T03:19:43.045Z,146600.09
2023-04-07T03:20:47.716Z,146589.22
2023-04-07T03:21:50.754Z,146603.72
2023-04-07T03:22:53.117Z,146607.34
2023-04-07T03:24:02.594Z,146592.88
2023-04-07T03:25:05.355Z,146598.91
2023-04-07T03:26:07.879Z,146606.13
2023-04-07T03:27:13.043Z,146623.03
2023-04-07T03:28:20.489Z,146645.94
2023-04-07T03:29:23.603Z,146643.53
2023-04-07T03:30:27.566Z,146662.84
2023-04-07T03:31:30.599Z,146655.63
2023-04-07T03:32:33.363Z,146621.78
2023-04-07T03:33:36.089Z,146636.28
2023-04-07T03:34:38.856Z,146665.25
2023-04-07T03:35:42.537Z,146651.97
2023-04-07T03:36:46.764Z,146643.53
2023-04-07T03:37:49.297Z,146619.38
2023-04-07T03:38:54.089Z,146626.66
2023-04-07T03:39:56.617Z,146620.59
2023-04-07T03:41:06.099Z,146616.97
2023-04-07T03:42:08.619Z,146619.38
2023-04-07T03:43:14.314Z,146641.13
2023-04-07T03:44:16.898Z,146606.13
2023-04-07T03:45:19.772Z,146644.72
2023-04-07T03:46:27.139Z,146636.28
2023-04-07T03:47:30.126Z,146638.72
2023-04-07T03:48:36.586Z,146643.53
2023-04-07T03:49:42.819Z,146643.53
2023-04-07T03:50:46.297Z,146659.25
2023-04-07T03:51:52.191Z,146662.84
2023-04-07T03:52:55.537Z,146666.47
2023-04-07T03:54:04.434Z,146650.75
2023-04-07T03:55:11.380Z,146674.91
2023-04-07T03:56:13.907Z,146674.91
2023-04-07T03:57:22.659Z,146648.34
2023-04-07T03:58:26.981Z,146661.66
2023-04-07T03:59:29.504Z,146662.84
2023-04-07T04:00:38.389Z,146655.63
2023-04-07T04:01:45.989Z,146650.75
2023-04-07T04:02:51.634Z,146660.44
2023-04-07T04:03:56.244Z,146653.16
2023-04-07T04:05:00.951Z,146612.16
2023-04-07T04:06:03.474Z,146637.50
2023-04-07T04:07:07.551Z,146650.75
2023-04-07T04:08:17.269Z,146650.75
2023-04-07T04:09:20.985Z,146641.13
2023-04-07T04:10:24.598Z,146651.97
2023-04-07T04:11:29.270Z,146632.69
2023-04-07T04:12:35.769Z,146637.50
2023-04-07T04:13:43.319Z,146604.91
2023-04-07T04:14:45.958Z,146580.78
2023-04-07T04:15:50.179Z,146567.53
2023-04-07T04:16:54.115Z,146560.28
2023-04-07T04:18:07.012Z,146566.31
2023-04-07T04:19:09.835Z,146573.53
2023-04-07T04:20:12.494Z,146594.06
2023-04-07T04:21:21.125Z,146580.78
2023-04-07T04:22:23.759Z,146575.97
2023-04-07T04:23:32.401Z,146544.59
2023-04-07T04:24:35.401Z,146532.53
2023-04-07T04:25:42.361Z,146537.38
2023-04-07T04:26:47.291Z,146528.94
2023-04-07T04:27:50.642Z,146485.44
2023-04-07T04:28:56.782Z,146525.28
2023-04-07T04:30:00.635Z,146519.19
2023-04-07T04:31:13.959Z,146484.22
2023-04-07T04:32:19.929Z,146467.34
2023-04-07T04:33:23.050Z,146498.72
2023-04-07T04:34:29.894Z,146508.34
2023-04-07T04:35:32.768Z,146510.75
2023-04-07T04:36:45.042Z,146478.19
2023-04-07T04:37:47.893Z,146470.97
2023-04-07T04:38:50.772Z,146460.13
2023-04-07T04:39:56.170Z,146484.22
2023-04-07T04:40:59.774Z,146477.00
2023-04-07T04:42:05.895Z,146498.72
2023-04-07T04:43:11.535Z,146510.75
2023-04-07T04:44:16.097Z,146505.94
2023-04-07T04:45:19.697Z,146478.19
2023-04-07T04:46:24.936Z,146477.00
2023-04-07T04:47:27.561Z,146472.19
2023-04-07T04:48:30.144Z,146498.72
2023-04-07T04:49:33.143Z,146504.75
2023-04-07T04:50:38.421Z,146496.31
2023-04-07T04:51:46.119Z,146498.72
2023-04-07T04:52:52.104Z,146501.13
2023-04-07T04:53:58.106Z,146520.41
2023-04-07T04:55:02.450Z,146484.22
2023-04-07T04:56:05.907Z,146495.09
2023-04-07T04:57:17.063Z,146464.94
2023-04-07T04:58:20.937Z,146487.84
2023-04-07T04:59:27.385Z,146498.72
2023-04-07T05:00:34.829Z,146467.34
2023-04-07T05:01:40.915Z,146477.00
2023-04-07T05:02:48.421Z,146457.69
2023-04-07T05:03:51.541Z,146474.59
2023-04-07T05:04:59.188Z,146481.81
2023-04-07T05:06:04.715Z,146498.72
2023-04-07T05:07:08.193Z,146487.84
2023-04-07T05:08:11.452Z,146493.91
2023-04-07T05:09:15.871Z,146483.00
2023-04-07T05:10:21.056Z,146484.22
2023-04-07T05:11:26.072Z,146508.34
2023-04-07T05:12:31.238Z,146513.16
2023-04-07T05:13:37.120Z,146477.00
2023-04-07T05:14:40.598Z,146486.63
2023-04-07T05:15:44.328Z,146544.59
2023-04-07T05:16:48.759Z,146544.59
2023-04-07T05:17:56.424Z,146544.59
2023-04-07T05:19:02.557Z,146522.81
2023-04-07T05:20:06.997Z,146491.44
2023-04-07T05:21:12.539Z,146444.44
2023-04-07T05:22:16.007Z,146462.53
2023-04-07T05:23:22.362Z,146483.00
2023-04-07T05:24:29.325Z,146514.38
2023-04-07T05:25:35.558Z,146505.94
2023-04-07T05:26:40.599Z,146514.38
2023-04-07T05:27:43.976Z,146527.72
2023-04-07T05:28:50.334Z,146472.19
2023-04-07T05:29:56.322Z,146473.38
2023-04-07T05:31:07.745Z,146503.53
2023-04-07T05:32:11.324Z,146516.78
2023-04-07T05:33:13.852Z,146514.38
2023-04-07T05:34:22.978Z,146522.81
2023-04-07T05:35:29.445Z,146510.75
2023-04-07T05:36:36.424Z,146542.19
2023-04-07T05:37:39.527Z,146490.25
2023-04-07T05:38:42.892Z,146503.53
2023-04-07T05:39:49.741Z,146501.13
2023-04-07T05:40:52.263Z,146472.19
2023-04-07T05:42:00.057Z,146452.84
2023-04-07T05:43:02.943Z,146448.03
2023-04-07T05:44:07.497Z,146452.84
2023-04-07T05:45:13.861Z,146457.69
2023-04-07T05:46:20.632Z,146474.59
2023-04-07T05:47:28.196Z,146451.66
2023-04-07T05:48:30.908Z,146443.22
2023-04-07T05:49:34.260Z,146470.97
2023-04-07T05:50:40.501Z,146444.44
2023-04-07T05:51:48.678Z,146438.41
2023-04-07T05:52:51.912Z,146469.75
2023-04-07T05:54:01.864Z,146474.59
2023-04-07T05:55:04.743Z,146428.78
2023-04-07T05:56:07.626Z,146446.84
2023-04-07T05:57:27.802Z,146463.75
2023-04-07T05:58:30.425Z,146439.63
2023-04-07T05:59:36.831Z,146439.63
2023-04-07T06:00:41.122Z,146484.22
2023-04-07T06:01:49.722Z,146495.09
2023-04-07T06:02:52.286Z,146462.53
2023-04-07T06:03:56.508Z,146470.97
2023-04-07T06:05:01.162Z,146458.88
2023-04-07T06:06:04.145Z,146473.38
2023-04-07T06:07:07.039Z,146483.00
2023-04-07T06:08:10.875Z,146469.75
2023-04-07T06:09:13.394Z,146449.25
2023-04-07T06:10:16.153Z,146450.44
2023-04-07T06:11:18.669Z,146480.59
2023-04-07T06:12:21.174Z,146468.56
2023-04-07T06:13:24.195Z,146481.81
2023-04-07T06:14:26.725Z,146496.31
2023-04-07T06:15:29.238Z,146534.94
2023-04-07T06:16:31.906Z,146545.78
2023-04-07T06:17:34.417Z,146556.63
2023-04-07T06:18:37.160Z,146578.38
2023-04-07T06:19:42.095Z,146573.53
2023-04-07T06:20:44.484Z,146563.91
2023-04-07T06:21:46.998Z,146568.72
2023-04-07T06:22:49.639Z,146596.50
2023-04-07T06:23:52.226Z,146612.16
2023-04-07T06:24:54.684Z,146631.47
2023-04-07T06:25:57.324Z,146649.56
2023-04-07T06:27:01.522Z,146651.97
2023-04-07T06:28:04.044Z,146660.44
2023-04-07T06:29:06.570Z,146670.09
2023-04-07T06:30:09.925Z,146668.88
2023-04-07T06:31:12.361Z,146693.03
2023-04-07T06:32:14.848Z,146707.50
2023-04-07T06:33:17.365Z,146723.22
2023-04-07T06:34:19.884Z,146758.22
2023-04-07T06:35:22.325Z,146713.53
2023-04-07T06:36:24.837Z,146741.28
2023-04-07T06:37:29.013Z,146757.00
2023-04-07T06:38:31.888Z,146769.06
2023-04-07T06:39:34.526Z,146810.09
2023-04-07T06:40:37.050Z,146822.19
2023-04-07T06:41:39.569Z,146805.28
2023-04-07T06:42:42.003Z,146812.50
2023-04-07T06:43:58.530Z,146848.72
2023-04-07T06:45:01.179Z,146878.94
2023-04-07T06:46:03.870Z,146829.44
2023-04-07T06:47:06.952Z,146870.47
2023-04-07T06:48:11.055Z,146889.81
2023-04-07T06:49:13.541Z,146859.63
2023-04-07T06:50:17.865Z,146887.41
2023-04-07T06:51:20.493Z,146894.66
2023-04-07T06:52:22.948Z,146927.25
2023-04-07T06:53:25.663Z,146913.94
2023-04-07T06:54:28.185Z,146924.84
2023-04-07T06:55:30.839Z,146942.94
2023-04-07T06:56:33.697Z,146973.13
2023-04-07T06:57:36.220Z,146935.69
2023-04-07T06:58:39.339Z,146987.66
2023-04-07T06:59:41.863Z,146982.84
2023-04-07T07:00:44.513Z,146984.03
2023-04-07T07:01:47.087Z,147000.94
2023-04-07T07:02:50.850Z,146999.72
2023-04-07T07:03:59.769Z,147038.38
2023-04-07T07:05:04.903Z,147025.09
2023-04-07T07:06:07.547Z,147084.31
2023-04-07T07:07:09.829Z,147092.75
2023-04-07T07:08:12.347Z,147130.25
2023-04-07T07:09:15.601Z,147173.75
2023-04-07T07:10:20.521Z,147206.41
2023-04-07T07:11:23.038Z,147242.72
2023-04-07T07:12:25.809Z,147277.75
2023-04-07T07:13:28.914Z,147292.25
2023-04-07T07:14:31.436Z,147258.41
2023-04-07T07:15:34.091Z,147264.44
2023-04-07T07:16:37.338Z,147262.03
2023-04-07T07:17:39.894Z,147276.56
2023-04-07T07:18:42.478Z,147298.28
2023-04-07T07:19:44.882Z,147257.19
2023-04-07T07:20:47.776Z,147264.44
2023-04-07T07:21:50.523Z,147264.44
2023-04-07T07:22:53.078Z,147298.28
2023-04-07T07:23:55.806Z,147293.47
2023-04-07T07:24:58.317Z,147241.50
2023-04-07T07:26:01.199Z,147285.00
2023-04-07T07:27:03.960Z,147312.81
2023-04-07T07:28:06.359Z,147387.78
2023-04-07T07:29:08.766Z,147453.09
2023-04-07T07:30:11.529Z,147468.81
2023-04-07T07:31:15.796Z,147499.06
2023-04-07T07:32:18.368Z,147496.63
2023-04-07T07:33:22.818Z,147524.47
2023-04-07T07:34:25.447Z,147512.41
2023-04-07T07:35:27.972Z,147438.63
2023-04-07T07:36:32.047Z,147524.47
2023-04-07T07:37:34.566Z,147646.75
2023-04-07T07:38:37.846Z,147650.38
2023-04-07T07:39:40.453Z,147583.81
2023-04-07T07:40:42.970Z,147593.50
2023-04-07T07:41:46.817Z,147670.97
2023-04-07T07:42:49.449Z,147691.53
2023-04-07T07:43:51.980Z,147669.78
2023-04-07T07:44:54.490Z,147569.31
2023-04-07T07:45:57.038Z,147634.69
2023-04-07T07:46:59.531Z,147624.97
2023-04-07T07:48:02.125Z,147616.50
2023-04-07T07:49:05.900Z,147553.56
2023-04-07T07:50:08.536Z,147629.78
2023-04-07T07:51:11.059Z,147637.09
2023-04-07T07:52:13.728Z,147680.66
2023-04-07T07:53:16.941Z,147704.88
2023-04-07T07:54:19.456Z,147698.81
2023-04-07T07:55:22.157Z,147661.25
2023-04-07T07:56:24.500Z,147771.47
2023-04-07T07:57:26.901Z,147830.81
2023-04-07T07:58:29.302Z,147784.75
2023-04-07T07:59:32.420Z,147920.41
2023-04-07T08:00:34.831Z,148002.84
2023-04-07T08:01:37.268Z,148061.00
2023-04-07T08:02:39.960Z,148061.00
2023-04-07T08:03:42.673Z,148151.88
2023-04-07T08:04:45.643Z,148105.84
2023-04-07T08:05:49.352Z,148104.63
2023-04-07T08:06:52.242Z,148048.88
2023-04-07T08:07:57.399Z,148166.44
2023-04-07T08:08:59.912Z,148056.13
2023-04-07T08:10:02.566Z,148142.19
2023-04-07T08:11:05.075Z,148217.34
2023-04-07T08:12:07.708Z,148204.00
2023-04-07T08:13:10.954Z,148271.97
2023-04-07T08:14:13.364Z,148366.53
2023-04-07T08:15:16.543Z,148422.34
2023-04-07T08:16:22.228Z,148538.78
2023-04-07T08:17:25.650Z,148533.94
2023-04-07T08:18:28.117Z,148538.78
2023-04-07T08:19:30.764Z,148626.22
2023-04-07T08:20:33.875Z,148572.81
2023-04-07T08:21:36.409Z,148589.84
2023-04-07T08:22:38.917Z,148582.56
2023-04-07T08:23:41.439Z,148593.47
2023-04-07T08:26:14.456Z,148424.78
2023-04-07T08:27:17.077Z,148519.41
2023-04-07T08:28:19.606Z,148541.22
2023-04-07T08:29:22.251Z,148633.50
2023-04-07T08:30:24.892Z,148696.63
2023-04-07T08:31:27.708Z,148694.19
2023-04-07T08:32:42.239Z,148669.91
2023-04-07T08:33:44.797Z,148786.47
2023-04-07T08:34:47.319Z,148748.84
2023-04-07T08:35:50.441Z,148745.22
2023-04-07T08:36:53.208Z,148850.88
2023-04-07T08:37:55.723Z,148740.31
2023-04-07T08:39:00.409Z,148963.81
2023-04-07T08:40:04.170Z,149097.50
2023-04-07T08:41:13.732Z,149144.94
2023-04-07T08:42:18.526Z,149318.75
2023-04-07T08:43:22.726Z,149000.25
2023-04-07T08:44:28.372Z,148922.53
2023-04-07T08:45:32.939Z,148928.59
2023-04-07T08:46:38.490Z,149048.88
2023-04-07T08:47:44.199Z,149031.84
2023-04-07T08:48:52.008Z,149034.28
2023-04-07T08:50:00.891Z,149007.59
2023-04-07T08:51:08.523Z,149040.38
2023-04-07T08:52:16.011Z,149087.75
2023-04-07T08:53:24.422Z,149022.16
2023-04-07T08:54:27.293Z,148932.22
2023-04-07T08:55:29.695Z,148910.41
2023-04-07T08:56:33.653Z,148939.56
2023-04-07T08:57:37.020Z,148819.25
2023-04-07T08:58:40.021Z,148912.84
2023-04-07T08:59:45.419Z,149045.25
2023-04-07T09:00:49.459Z,149027.00
2023-04-07T09:01:52.192Z,149053.75
2023-04-07T09:02:54.984Z,149163.13
2023-04-07T09:03:58.906Z,149273.78
2023-04-07T09:05:04.977Z,149532.88
2023-04-07T09:06:07.497Z,149343.13
2023-04-07T09:07:09.917Z,149450.13
2023-04-07T09:08:12.790Z,149412.44
2023-04-07T09:09:15.915Z,149474.47
2023-04-07T09:10:18.433Z,149425.78
2023-04-07T09:11:21.303Z,149530.44
2023-04-07T09:12:23.821Z,149481.75
2023-04-07T09:13:26.344Z,149479.31
2023-04-07T09:14:28.997Z,149549.88
2023-04-07T09:15:35.786Z,149345.56
2023-04-07T09:16:39.589Z,149501.25
2023-04-07T09:17:42.105Z,149618.06
2023-04-07T09:18:44.597Z,149760.47
2023-04-07T09:19:49.872Z,149486.63
2023-04-07T09:20:58.994Z,149423.38
2023-04-07T09:22:01.532Z,149602.25
2023-04-07T09:23:04.035Z,149491.47
2023-04-07T09:24:22.034Z,149649.69
2023-04-07T09:25:27.384Z,149768.97
2023-04-07T09:26:31.516Z,149761.69
2023-04-07T09:27:34.272Z,149723.91
2023-04-07T09:28:43.632Z,149708.13
2023-04-07T09:29:47.850Z,149553.53
2023-04-07T09:30:54.802Z,149340.69
2023-04-07T09:31:57.864Z,149501.25
2023-04-07T09:33:02.007Z,149545.03
2023-04-07T09:34:30.796Z,149594.97
2023-04-07T09:35:40.666Z,149313.91
2023-04-07T09:36:43.170Z,149347.97
2023-04-07T09:38:01.044Z,149270.13
2023-04-07T09:39:08.722Z,149185.03
2023-04-07T09:40:11.743Z,149357.69
2023-04-07T09:41:19.800Z,149323.59
2023-04-07T09:42:22.553Z,149396.59
2023-04-07T09:43:25.527Z,149493.91
2023-04-07T09:44:28.054Z,149403.94
2023-04-07T09:45:39.511Z,149185.03
2023-04-07T09:46:54.803Z,149240.97
2023-04-07T09:47:57.342Z,149311.47
2023-04-07T09:49:07.305Z,149360.13
2023-04-07T09:50:09.936Z,149240.97
2023-04-07T09:51:14.615Z,149309.03
2023-04-07T09:52:18.450Z,149420.94
2023-04-07T09:53:23.270Z,149380.81
2023-04-07T09:54:38.852Z,149338.28
2023-04-07T09:55:42.369Z,149367.47
2023-04-07T09:56:45.097Z,149277.41
2023-04-07T09:57:51.600Z,149369.88
2023-04-07T09:58:54.110Z,149374.75
2023-04-07T09:59:57.588Z,149435.56
2023-04-07T10:01:01.446Z,149527.97
2023-04-07T10:02:04.885Z,149434.34
2023-04-07T10:03:08.314Z,149537.72
2023-04-07T10:04:11.433Z,149788.47
2023-04-07T10:05:14.142Z,149635.13
2023-04-07T10:06:18.114Z,149593.72
2023-04-07T10:07:20.749Z,149557.16
2023-04-07T10:08:23.322Z,149540.16
2023-04-07T10:09:28.199Z,149719.06
2023-04-07T10:10:31.904Z,149862.78
2023-04-07T10:11:34.544Z,149941.91
2023-04-07T10:12:38.626Z,149876.16
2023-04-07T10:13:41.987Z,149932.19
2023-04-07T10:14:47.230Z,149686.19
2023-04-07T10:15:50.147Z,149860.34
2023-04-07T10:16:53.449Z,149740.97
2023-04-07T10:17:57.147Z,149760.47
2023-04-07T10:18:59.876Z,149733.69
2023-04-07T10:20:05.293Z,149861.56
2023-04-07T10:21:08.190Z,149616.84
2023-04-07T10:22:11.872Z,149635.13
2023-04-07T10:23:22.311Z,149540.16
2023-04-07T10:24:43.199Z,149535.31
2023-04-07T10:25:47.293Z,149508.53
2023-04-07T10:26:59.418Z,149313.91
2023-04-07T10:28:06.722Z,149430.66
2023-04-07T10:29:15.132Z,149451.34
2023-04-07T10:30:23.996Z,149580.34
2023-04-07T10:31:26.673Z,149815.28
2023-04-07T10:32:29.250Z,149856.66
2023-04-07T10:33:49.533Z,149776.28
2023-04-07T10:34:54.628Z,149767.78
2023-04-07T10:36:06.234Z,149703.25
2023-04-07T10:37:13.563Z,149445.28
2023-04-07T10:38:16.857Z,149535.31
2023-04-07T10:39:20.537Z,149698.41
2023-04-07T10:40:27.970Z,149864.00
2023-04-07T10:41:35.885Z,149912.69
2023-04-07T10:42:38.896Z,149822.56
2023-04-07T10:43:42.277Z,149893.22
2023-04-07T10:44:46.810Z,149844.50
2023-04-07T10:45:49.308Z,149898.09
2023-04-07T10:47:05.896Z,149740.97
2023-04-07T10:48:12.513Z,149659.41
2023-04-07T10:49:20.412Z,149820.13
2023-04-07T10:50:24.068Z,149930.97
2023-04-07T10:51:27.400Z,150044.25
2023-04-07T10:52:29.893Z,150107.59
2023-04-07T10:53:32.492Z,150026.00
2023-04-07T10:54:34.820Z,150144.16
2023-04-07T10:55:44.864Z,150121.03
2023-04-07T10:57:02.894Z,149826.25
2023-04-07T10:58:37.942Z,150139.28
2023-04-07T10:59:47.120Z,150005.28
2023-04-07T11:01:07.838Z,150002.84
2023-04-07T11:02:13.113Z,149958.97
2023-04-07T11:03:16.134Z,150095.44
2023-04-07T11:04:18.931Z,150058.91
2023-04-07T11:05:23.062Z,149993.13
2023-04-07T11:06:27.158Z,149784.84
2023-04-07T11:07:47.548Z,150044.25
2023-04-07T11:08:52.947Z,150018.66
2023-04-07T11:10:15.990Z,150131.97
2023-04-07T11:11:39.024Z,149941.91
2023-04-07T11:12:41.549Z,150180.69
2023-04-07T11:13:49.363Z,150149.00
2023-04-07T11:14:52.232Z,150097.88
2023-04-07T11:15:55.635Z,150200.25
2023-04-07T11:16:58.831Z,150319.72
2023-04-07T11:18:17.575Z,150420.94
2023-04-07T11:19:20.201Z,150674.59
2023-04-07T11:20:22.712Z,150523.34
2023-04-07T11:21:25.237Z,150427.03
2023-04-07T11:22:30.296Z,150295.31
2023-04-07T11:23:41.555Z,150129.56
2023-04-07T11:24:46.111Z,150366.00
2023-04-07T11:25:49.954Z,150444.06
2023-04-07T11:26:52.475Z,150674.59
2023-04-07T11:27:54.996Z,150729.53
2023-04-07T11:28:59.318Z,150418.50
2023-04-07T11:30:01.837Z,150444.06
2023-04-07T11:31:04.388Z,150358.72
2023-04-07T11:32:07.009Z,150401.41
2023-04-07T11:33:09.519Z,150366.00
2023-04-07T11:34:12.159Z,150442.84
2023-04-07T11:35:15.284Z,150657.56
2023-04-07T11:36:29.441Z,150761.28
2023-04-07T11:37:31.964Z,150607.50
2023-04-07T11:38:39.053Z,150397.75
2023-04-07T11:39:41.565Z,150178.25
2023-04-07T11:40:44.091Z,150422.16
2023-04-07T11:41:48.418Z,150475.75
2023-04-07T11:42:51.655Z,150624.63
2023-04-07T11:44:10.370Z,150378.19
2023-04-07T11:45:20.853Z,150327.00
2023-04-07T11:46:24.010Z,150341.63
2023-04-07T11:47:40.044Z,150512.34
2023-04-07T11:48:44.215Z,150444.06
2023-04-07T11:49:47.211Z,150429.44
2023-04-07T11:50:49.613Z,150488.00
2023-04-07T11:52:07.597Z,150588.03
2023-04-07T11:53:10.627Z,150427.03
2023-04-07T11:54:13.371Z,150502.59
2023-04-07T11:55:22.411Z,150463.59
2023-04-07T11:56:25.134Z,150103.94
2023-04-07T11:57:28.984Z,150000.44
2023-04-07T11:58:31.751Z,150125.91
2023-04-07T11:59:34.296Z,150078.34
2023-04-07T12:00:37.017Z,150231.94
2023-04-07T12:01:42.295Z,150451.41
2023-04-07T12:02:45.119Z,150406.28
2023-04-07T12:04:04.540Z,150441.63
2023-04-07T12:05:10.255Z,150433.09
2023-04-07T12:06:12.792Z,150485.56
2023-04-07T12:07:15.662Z,150617.31
2023-04-07T12:08:18.784Z,150546.47
2023-04-07T12:09:36.396Z,150680.75
2023-04-07T12:10:40.623Z,150668.50
2023-04-07T12:11:50.358Z,150595.34
2023-04-07T12:12:53.543Z,150317.28
2023-04-07T12:13:57.194Z,150614.88
2023-04-07T12:14:59.729Z,150636.78
2023-04-07T12:16:02.745Z,150524.56
2023-04-07T12:17:05.232Z,150597.78
2023-04-07T12:18:07.751Z,150716.13
2023-04-07T12:19:10.154Z,150542.84
2023-04-07T12:20:12.683Z,150567.28
2023-04-07T12:21:15.821Z,150641.66
2023-04-07T12:22:19.043Z,150790.56
2023-04-07T12:23:22.881Z,150889.44